Time;durP1;ratioP1;P1;durP2;ratioP2;P2;SDS_P1;SDS_P2;PMS_P1;PMS_P2;Temp;Humidity;BMP_temperature;BMP_pressure;BME280_temperature;BME280_humidity;BME280_pressure;Samples;Min_cycle;Max_cycle;Signal;HPM_P1;HPM_P2
2022/06/14 00:03:17;;;;;;;182.73;85.13;;;;;;;;;;4980805;28;20256;-51
2022/06/14 00:05:43;;;;;;;151.83;77.33;;;;;;;;;;4984734;28;20225;-51
2022/06/14 00:08:09;;;;;;;83.00;58.00;;;;;;;;;;4990588;28;20220;-51
2022/06/14 00:10:35;;;;;;;142.63;76.47;;;;;;;;;;4991295;28;20210;-51
2022/06/14 00:13:01;;;;;;;122.93;73.37;;;;;;;;;;4993140;28;20217;-51
2022/06/14 00:15:27;;;;;;;110.37;69.33;;;;;;;;;;4988530;28;20769;-51
2022/06/14 00:17:53;;;;;;;87.40;64.45;;;;;;;;;;4989804;28;20209;-51
2022/06/14 00:20:19;;;;;;;134.33;73.10;;;;;;;;;;4988383;28;20181;-51
2022/06/14 00:22:45;;;;;;;129.00;73.43;;;;;;;;;;4995130;28;20407;-51
2022/06/14 00:25:26;;;;;;;156.70;86.37;;;;;;;;;;4988713;28;20447;-51
2022/06/14 00:27:52;;;;;;;89.60;64.97;;;;;;;;;;4995775;28;20220;-51
2022/06/14 00:30:19;;;;;;;136.63;77.93;;;;;;;;;;4994598;28;20225;-51
2022/06/14 00:32:45;;;;;;;133.07;77.73;;;;;;;;;;4986771;28;20217;-51
2022/06/14 00:35:11;;;;;;;103.80;64.73;;;;;;;;;;4993995;28;20259;-51
2022/06/14 00:37:37;;;;;;;120.97;57.73;;;;;;;;;;4987658;28;20219;-51
2022/06/14 00:40:03;;;;;;;159.77;66.40;;;;;;;;;;4985832;28;20560;-51
2022/06/14 00:42:29;;;;;;;108.83;52.67;;;;;;;;;;4978536;28;20225;-51
2022/06/14 00:45:13;;;;;;;85.82;45.40;;;;;;;;;;4989417;28;20229;-51
2022/06/14 00:47:56;;;;;;;157.60;63.43;;;;;;;;;;4993469;28;20210;-51
2022/06/14 00:50:26;;;;;;;207.75;71.70;;;;;;;;;;4988887;28;20200;-51
2022/06/14 00:52:55;;;;;;;89.07;45.87;;;;;;;;;;4981791;28;20217;-52
2022/06/14 00:55:25;;;;;;;88.47;44.17;;;;;;;;;;4993190;28;20688;-51
2022/06/14 00:57:53;;;;;;;129.10;56.43;;;;;;;;;;4987015;28;20233;-51
2022/06/14 01:00:21;;;;;;;156.13;59.57;;;;;;;;;;4979807;28;20221;-51
2022/06/14 01:02:50;;;;;;;145.53;56.87;;;;;;;;;;4987717;28;20190;-51
2022/06/14 01:05:17;;;;;;;131.63;52.77;;;;;;;;;;4983596;28;20523;-51
2022/06/14 01:07:48;;;;;;;90.13;41.40;;;;;;;;;;4980201;28;20559;-51
2022/06/14 01:10:20;;;;;;;143.27;56.27;;;;;;;;;;4982831;28;20217;-51
2022/06/14 01:12:47;;;;;;;150.60;85.10;;;;;;;;;;4981479;28;20592;-51
2022/06/14 01:15:17;;;;;;;202.13;118.83;;;;;;;;;;4984258;28;20217;-52
2022/06/14 01:17:47;;;;;;;257.73;143.37;;;;;;;;;;4990092;28;20292;-51
2022/06/14 01:20:15;;;;;;;195.93;123.90;;;;;;;;;;4993026;28;20220;-51
2022/06/14 01:22:41;;;;;;;274.30;148.47;;;;;;;;;;4982436;28;20722;-52
2022/06/14 01:25:07;;;;;;;222.67;130.87;;;;;;;;;;4985840;28;20307;-51
2022/06/14 01:27:35;;;;;;;237.57;134.47;;;;;;;;;;4984810;28;20241;-51
2022/06/14 01:30:03;;;;;;;171.33;114.57;;;;;;;;;;4995181;28;20221;-51
2022/06/14 01:32:31;;;;;;;333.65;176.65;;;;;;;;;;4980233;28;22861;-51
2022/06/14 01:34:58;;;;;;;262.93;142.90;;;;;;;;;;4979313;28;20247;-51
2022/06/14 01:37:25;;;;;;;227.97;130.63;;;;;;;;;;4979804;28;20276;-51
2022/06/14 01:39:51;;;;;;;212.80;126.10;;;;;;;;;;4983824;28;20236;-51
2022/06/14 01:42:18;;;;;;;219.47;127.67;;;;;;;;;;4982268;28;20888;-51
2022/06/14 01:45:03;;;;;;;363.50;178.57;;;;;;;;;;4977119;28;20222;-51
2022/06/14 01:47:34;;;;;;;255.63;138.33;;;;;;;;;;4979489;28;20215;-51
2022/06/14 01:53:09;;;;;;;297.30;152.30;;;;;;;;;;4990876;28;20593;-51
2022/06/14 01:55:35;;;;;;;312.70;152.07;;;;;;;;;;4989830;28;20458;-51
2022/06/14 01:58:21;;;;;;;295.80;145.63;;;;;;;;;;4980332;28;20610;-51
2022/06/14 02:00:47;;;;;;;265.30;140.63;;;;;;;;;;4986739;28;20225;-51
2022/06/14 02:06:02;;;;;;;336.90;162.03;;;;;;;;;;4985604;28;20589;-51
2022/06/14 02:08:32;;;;;;;348.60;167.43;;;;;;;;;;4980940;28;20283;-52
2022/06/14 02:11:02;;;;;;;269.87;136.37;;;;;;;;;;4985706;28;20221;-51
2022/06/14 02:13:44;;;;;;;307.80;148.63;;;;;;;;;;4994115;28;20243;-52
2022/06/14 02:16:15;;;;;;;329.17;159.23;;;;;;;;;;4986047;28;20248;-52
2022/06/14 02:18:46;;;;;;;343.20;164.43;;;;;;;;;;4980811;28;20706;-51
2022/06/14 02:21:35;;;;;;;359.67;166.47;;;;;;;;;;4985851;28;20225;-51
2022/06/14 02:24:13;;;;;;;251.90;136.70;;;;;;;;;;4982380;28;20732;-51
2022/06/14 02:26:45;;;;;;;359.73;175.80;;;;;;;;;;4985187;28;20189;-51
2022/06/14 02:29:14;;;;;;;288.40;147.13;;;;;;;;;;4962303;28;20225;-51
2022/06/14 02:31:49;;;;;;;231.00;126.80;;;;;;;;;;4980610;28;20306;-51
2022/06/14 02:34:18;;;;;;;239.40;128.60;;;;;;;;;;4983936;28;20224;-52
2022/06/14 02:36:47;;;;;;;261.60;138.03;;;;;;;;;;4982906;28;20228;-51
2022/06/14 02:39:18;;;;;;;214.67;122.67;;;;;;;;;;4981855;28;20236;-51
2022/06/14 02:41:47;;;;;;;234.90;132.27;;;;;;;;;;4982020;28;20178;-52
2022/06/14 02:44:19;;;;;;;240.30;129.90;;;;;;;;;;4987276;28;20254;-51
2022/06/14 02:46:51;;;;;;;229.47;128.13;;;;;;;;;;4981000;28;20348;-51
2022/06/14 02:49:28;;;;;;;225.20;125.10;;;;;;;;;;4980707;28;20569;-51
2022/06/14 02:51:56;;;;;;;150.90;101.17;;;;;;;;;;4989037;28;20756;-52
2022/06/14 02:54:28;;;;;;;227.43;124.57;;;;;;;;;;4981967;28;20697;-50
2022/06/14 02:57:07;;;;;;;201.23;115.70;;;;;;;;;;4978135;28;20216;-51
2022/06/14 02:59:40;;;;;;;162.13;103.93;;;;;;;;;;4982500;28;20206;-51
2022/06/14 03:02:08;;;;;;;178.17;109.03;;;;;;;;;;4988653;28;20664;-51
2022/06/14 03:04:42;;;;;;;205.67;118.33;;;;;;;;;;4988885;28;20248;-51
2022/06/14 03:07:18;;;;;;;205.60;116.23;;;;;;;;;;4985412;28;20224;-51
2022/06/14 03:09:46;;;;;;;199.30;113.40;;;;;;;;;;4977038;28;20228;-51
2022/06/14 03:12:16;;;;;;;140.83;95.00;;;;;;;;;;4987399;28;20221;-51
2022/06/14 03:14:51;;;;;;;165.90;101.70;;;;;;;;;;4984080;28;20534;-51
2022/06/14 03:17:26;;;;;;;199.70;112.53;;;;;;;;;;4986751;28;20653;-51
2022/06/14 03:20:12;;;;;;;190.87;111.57;;;;;;;;;;4982386;28;20227;-51
2022/06/14 03:22:43;;;;;;;157.83;98.70;;;;;;;;;;4978440;28;20224;-51
2022/06/14 03:25:15;;;;;;;181.33;108.80;;;;;;;;;;4984259;28;22211;-51
2022/06/14 03:27:49;;;;;;;113.67;86.50;;;;;;;;;;4991467;28;20212;-51
2022/06/14 03:30:26;;;;;;;217.07;116.00;;;;;;;;;;4986424;28;20215;-52
2022/06/14 03:33:16;;;;;;;248.33;127.10;;;;;;;;;;4978820;28;20283;-51
2022/06/14 03:35:50;;;;;;;188.33;110.07;;;;;;;;;;4975335;28;20185;-51
2022/06/14 03:38:26;;;;;;;194.20;110.67;;;;;;;;;;4981823;28;20235;-51
2022/06/14 03:40:51;;;;;;;164.77;102.93;;;;;;;;;;4990055;28;20657;-51
2022/06/14 03:43:19;;;;;;;173.97;104.93;;;;;;;;;;4991370;28;20252;-51
2022/06/14 03:45:49;;;;;;;194.10;109.93;;;;;;;;;;4983444;28;20228;-51
2022/06/14 03:48:15;;;;;;;170.03;102.47;;;;;;;;;;4981480;28;20228;-51
2022/06/14 03:50:50;;;;;;;171.30;106.00;;;;;;;;;;4988272;28;20182;-51
2022/06/14 03:53:34;;;;;;;195.93;110.53;;;;;;;;;;4990489;28;21789;-51
2022/06/14 03:56:07;;;;;;;167.70;103.43;;;;;;;;;;4977570;28;20218;-51
2022/06/14 03:58:52;;;;;;;157.23;102.63;;;;;;;;;;4986170;28;20217;-51
2022/06/14 04:01:23;;;;;;;172.83;103.57;;;;;;;;;;4990098;28;20333;-51
2022/06/14 04:04:16;;;;;;;141.90;99.33;;;;;;;;;;4993654;28;20220;-51
2022/06/14 04:06:49;;;;;;;134.67;96.30;;;;;;;;;;4984233;28;20252;-53
2022/06/14 04:09:34;;;;;;;159.57;101.73;;;;;;;;;;4981498;28;20232;-51
2022/06/14 04:12:10;;;;;;;252.73;133.20;;;;;;;;;;4985579;28;20601;-53
2022/06/14 04:14:43;;;;;;;133.93;95.57;;;;;;;;;;4997355;28;20284;-52
2022/06/14 04:17:24;;;;;;;226.27;124.67;;;;;;;;;;4989418;28;20277;-51
2022/06/14 04:19:55;;;;;;;196.37;113.27;;;;;;;;;;4980813;28;20217;-51
2022/06/14 04:22:21;;;;;;;230.73;120.97;;;;;;;;;;4983252;28;20946;-51
2022/06/14 04:24:53;;;;;;;151.17;100.27;;;;;;;;;;4990929;28;20217;-51
2022/06/14 04:27:31;;;;;;;233.13;122.63;;;;;;;;;;4983270;28;20549;-51
2022/06/14 04:30:16;;;;;;;128.87;89.57;;;;;;;;;;4990706;28;20223;-51
2022/06/14 04:32:49;;;;;;;114.73;85.83;;;;;;;;;;4992317;28;20295;-51
2022/06/14 04:35:34;;;;;;;161.03;99.60;;;;;;;;;;4998280;28;20173;-51
2022/06/14 04:38:02;;;;;;;158.77;101.03;;;;;;;;;;4993053;28;20229;-51
2022/06/14 04:40:41;;;;;;;137.00;92.20;;;;;;;;;;4992592;28;20212;-51
2022/06/14 04:43:09;;;;;;;154.03;93.43;;;;;;;;;;4989534;28;20946;-51
2022/06/14 04:45:41;;;;;;;207.70;111.80;;;;;;;;;;4991711;28;20308;-52
2022/06/14 04:48:15;;;;;;;176.23;104.53;;;;;;;;;;4990990;28;20222;-51
2022/06/14 04:50:54;;;;;;;157.07;102.40;;;;;;;;;;4985287;28;20231;-51
2022/06/14 04:53:20;;;;;;;178.20;103.30;;;;;;;;;;4983717;28;20194;-52
2022/06/14 04:55:49;;;;;;;118.17;85.57;;;;;;;;;;4992095;28;20213;-52
2022/06/14 04:58:19;;;;;;;149.13;94.67;;;;;;;;;;4993663;28;20229;-53
2022/06/14 05:00:51;;;;;;;137.27;94.70;;;;;;;;;;4989587;28;20299;-52
2022/06/14 05:03:21;;;;;;;296.10;145.13;;;;;;;;;;4956914;28;20225;-52
2022/06/14 05:05:49;;;;;;;223.07;114.77;;;;;;;;;;4972881;28;20379;-52
2022/06/14 05:08:25;;;;;;;259.07;123.70;;;;;;;;;;4971444;28;20439;-52
2022/06/14 05:11:10;;;;;;;138.03;91.53;;;;;;;;;;4994449;28;20208;-53
2022/06/14 05:13:47;;;;;;;194.80;101.77;;;;;;;;;;4987772;28;20220;-53
2022/06/14 05:16:20;;;;;;;174.13;92.97;;;;;;;;;;4984463;28;20225;-53
2022/06/14 05:18:51;;;;;;;113.47;82.77;;;;;;;;;;4996762;28;20228;-53
2022/06/14 05:21:24;;;;;;;171.50;99.83;;;;;;;;;;4989697;28;20750;-53
2022/06/14 05:23:52;;;;;;;204.30;101.53;;;;;;;;;;4978417;28;20213;-55
2022/06/14 05:26:24;;;;;;;288.07;119.83;;;;;;;;;;4980973;28;20196;-55
2022/06/14 05:29:10;;;;;;;163.40;98.43;;;;;;;;;;4985696;28;20209;-55
2022/06/14 05:31:40;;;;;;;184.73;105.57;;;;;;;;;;4984750;28;20212;-55
2022/06/14 05:34:24;;;;;;;113.77;85.30;;;;;;;;;;4979932;28;20216;-54
2022/06/14 05:36:55;;;;;;;184.20;104.40;;;;;;;;;;4976814;28;20231;-56
2022/06/14 05:39:37;;;;;;;139.47;96.97;;;;;;;;;;5000010;28;20239;-53
2022/06/14 05:42:09;;;;;;;150.67;100.90;;;;;;;;;;5017066;28;20912;-53
2022/06/14 05:44:38;;;;;;;213.30;125.97;;;;;;;;;;4990925;28;20254;-49
2022/06/14 05:47:11;;;;;;;142.83;101.23;;;;;;;;;;4990286;28;20185;-49
2022/06/14 05:49:39;;;;;;;143.93;102.60;;;;;;;;;;4996224;28;20216;-49
2022/06/14 05:52:05;;;;;;;160.13;104.30;;;;;;;;;;4992628;28;20312;-49
2022/06/14 05:54:36;;;;;;;149.57;103.70;;;;;;;;;;4996721;28;20229;-49
2022/06/14 05:57:05;;;;;;;196.10;116.43;;;;;;;;;;4990838;28;20228;-50
2022/06/14 05:59:38;;;;;;;180.50;113.23;;;;;;;;;;4983431;28;20217;-49
2022/06/14 06:02:07;;;;;;;177.80;113.77;;;;;;;;;;4989280;28;20650;-49
2022/06/14 06:04:37;;;;;;;117.93;97.13;;;;;;;;;;4990376;28;20677;-53
2022/06/14 06:07:06;;;;;;;129.80;99.17;;;;;;;;;;5006694;28;20224;-53
2022/06/14 06:09:48;;;;;;;119.87;96.90;;;;;;;;;;5014533;28;20212;-53
2022/06/14 06:12:14;;;;;;;124.43;97.47;;;;;;;;;;5009412;28;20221;-53
2022/06/14 06:14:44;;;;;;;149.00;105.80;;;;;;;;;;4994816;28;20700;-53
2022/06/14 06:17:22;;;;;;;127.97;97.30;;;;;;;;;;4991529;28;20200;-51
2022/06/14 06:19:55;;;;;;;146.77;105.03;;;;;;;;;;4991027;28;20216;-52
2022/06/14 06:22:29;;;;;;;162.70;111.40;;;;;;;;;;4990790;28;20244;-53
2022/06/14 06:24:57;;;;;;;136.07;100.43;;;;;;;;;;4991312;28;20562;-53
2022/06/14 06:27:32;;;;;;;147.27;106.37;;;;;;;;;;4996908;28;20738;-53
2022/06/14 06:30:22;;;;;;;131.53;103.60;;;;;;;;;;5010649;28;20220;-52
2022/06/14 06:32:48;;;;;;;156.73;104.73;;;;;;;;;;5011021;28;20178;-53
2022/06/14 06:35:14;;;;;;;131.47;99.57;;;;;;;;;;5030964;28;20253;-52
2022/06/14 06:37:43;;;;;;;122.57;99.13;;;;;;;;;;5029898;28;20734;-52
2022/06/14 06:40:20;;;;;;;134.27;102.77;;;;;;;;;;5010328;28;20301;-53
2022/06/14 06:42:47;;;;;;;160.07;109.87;;;;;;;;;;5003710;28;20267;-52
2022/06/14 06:45:15;;;;;;;131.20;100.83;;;;;;;;;;5011915;28;20231;-52
2022/06/14 06:47:44;;;;;;;141.40;104.00;;;;;;;;;;5010265;28;20196;-53
2022/06/14 06:50:14;;;;;;;152.70;112.77;;;;;;;;;;5011042;28;20649;-53
2022/06/14 06:52:46;;;;;;;149.10;107.13;;;;;;;;;;5010214;28;20220;-53
2022/06/14 06:55:16;;;;;;;156.87;109.93;;;;;;;;;;5010196;28;20227;-52
2022/06/14 06:57:44;;;;;;;138.47;102.37;;;;;;;;;;5009934;28;20570;-52
2022/06/14 07:00:12;;;;;;;151.33;108.93;;;;;;;;;;5010414;28;20804;-53
2022/06/14 07:02:49;;;;;;;207.63;126.33;;;;;;;;;;5007292;28;20402;-53
2022/06/14 07:05:17;;;;;;;143.97;110.90;;;;;;;;;;5008695;28;20464;-52
2022/06/14 07:07:52;;;;;;;167.83;117.23;;;;;;;;;;5007961;28;20228;-52
2022/06/14 07:10:18;;;;;;;172.57;122.07;;;;;;;;;;5018328;28;20566;-53
2022/06/14 07:12:49;;;;;;;186.60;124.87;;;;;;;;;;4998846;28;21094;-53
2022/06/14 07:15:15;;;;;;;170.53;116.63;;;;;;;;;;5010855;28;20327;-53
2022/06/14 07:17:45;;;;;;;183.73;122.60;;;;;;;;;;5011999;28;20295;-52
2022/06/14 07:20:27;;;;;;;171.43;118.97;;;;;;;;;;5013066;28;20177;-52
2022/06/14 07:23:00;;;;;;;162.80;116.30;;;;;;;;;;5010690;28;20759;-52
2022/06/14 07:25:30;;;;;;;177.00;113.47;;;;;;;;;;5012436;28;20224;-52
2022/06/14 07:28:02;;;;;;;171.23;112.87;;;;;;;;;;5012447;28;20260;-52
2022/06/14 07:30:32;;;;;;;179.67;116.60;;;;;;;;;;5013174;28;20212;-53
2022/06/14 07:33:00;;;;;;;158.93;113.60;;;;;;;;;;5012866;28;20212;-53
2022/06/14 07:35:28;;;;;;;177.60;120.83;;;;;;;;;;5013377;28;20177;-52
2022/06/14 07:37:59;;;;;;;163.37;115.73;;;;;;;;;;5013309;28;20586;-53
2022/06/14 07:40:31;;;;;;;173.70;120.20;;;;;;;;;;5011926;28;20216;-53
2022/06/14 07:43:00;;;;;;;167.00;117.20;;;;;;;;;;5012859;28;20247;-53
2022/06/14 07:45:31;;;;;;;180.30;125.80;;;;;;;;;;5013305;28;20648;-52
2022/06/14 07:48:19;;;;;;;184.67;126.20;;;;;;;;;;5012899;28;20216;-52
2022/06/14 07:50:45;;;;;;;176.93;120.33;;;;;;;;;;5013019;28;20154;-53
2022/06/14 07:53:23;;;;;;;178.20;124.47;;;;;;;;;;5013566;28;20239;-53
2022/06/14 07:55:55;;;;;;;187.37;127.40;;;;;;;;;;5012654;28;20576;-53
2022/06/14 07:58:27;;;;;;;158.63;115.67;;;;;;;;;;5012358;28;20313;-53
2022/06/14 08:01:07;;;;;;;194.07;128.17;;;;;;;;;;5012525;28;20312;-52
2022/06/14 08:03:47;;;;;;;163.93;117.67;;;;;;;;;;5012570;28;20220;-53
2022/06/14 08:06:16;;;;;;;201.23;128.63;;;;;;;;;;5012089;28;20300;-53
2022/06/14 08:08:43;;;;;;;199.93;133.50;;;;;;;;;;5010153;28;20212;-53
2022/06/14 08:11:13;;;;;;;189.00;125.80;;;;;;;;;;5010911;28;20372;-52
2022/06/14 08:13:42;;;;;;;185.60;118.85;;;;;;;;;;5011410;28;20232;-53
2022/06/14 08:16:10;;;;;;;205.67;132.67;;;;;;;;;;5011025;28;20223;-52
2022/06/14 08:18:41;;;;;;;182.97;127.27;;;;;;;;;;5011110;28;20229;-53
2022/06/14 08:21:17;;;;;;;183.97;129.20;;;;;;;;;;5004044;28;20220;-54
2022/06/14 08:23:48;;;;;;;283.40;164.20;;;;;;;;;;4983900;28;20224;-54
2022/06/14 08:26:24;;;;;;;249.70;149.03;;;;;;;;;;4985622;28;20198;-54
2022/06/14 08:29:05;;;;;;;213.73;137.50;;;;;;;;;;4992528;28;20213;-54
2022/06/14 08:31:41;;;;;;;241.23;144.93;;;;;;;;;;4988816;28;20279;-54
2022/06/14 08:34:13;;;;;;;226.90;143.63;;;;;;;;;;4986438;28;20227;-54
2022/06/14 08:36:57;;;;;;;258.73;157.80;;;;;;;;;;4984920;28;20633;-54
2022/06/14 08:39:29;;;;;;;262.33;153.63;;;;;;;;;;4989038;28;20252;-54
2022/06/14 08:42:01;;;;;;;246.20;152.20;;;;;;;;;;4989975;28;20224;-53
2022/06/14 08:44:33;;;;;;;349.83;195.13;;;;;;;;;;4984100;28;20207;-54
2022/06/14 08:47:18;;;;;;;309.53;177.17;;;;;;;;;;4983320;28;20448;-54
2022/06/14 08:49:49;;;;;;;263.02;158.20;;;;;;;;;;4982851;28;20316;-54
2022/06/14 08:52:15;;;;;;;324.25;181.77;;;;;;;;;;4984959;28;20228;-54
2022/06/14 08:54:56;;;;;;;335.25;184.27;;;;;;;;;;4983775;28;20208;-54
2022/06/14 08:57:30;;;;;;;300.17;166.80;;;;;;;;;;4992532;28;20233;-54
2022/06/14 08:59:56;;;;;;;350.37;191.97;;;;;;;;;;4983811;28;20355;-54
2022/06/14 09:02:36;;;;;;;315.07;172.73;;;;;;;;;;4987412;28;20594;-54
2022/06/14 09:05:20;;;;;;;307.10;171.10;;;;;;;;;;4986551;28;20312;-54
2022/06/14 09:08:10;;;;;;;332.23;181.97;;;;;;;;;;4985488;28;20255;-54
2022/06/14 09:10:52;;;;;;;279.20;160.43;;;;;;;;;;4989916;28;20219;-54
2022/06/14 09:13:18;;;;;;;404.00;207.30;;;;;;;;;;4992224;28;20923;-54
2022/06/14 09:16:02;;;;;;;381.13;193.70;;;;;;;;;;4986133;28;20300;-55
2022/06/14 09:18:47;;;;;;;343.87;173.37;;;;;;;;;;4997631;28;20826;-54
2022/06/14 09:21:16;;;;;;;364.93;195.60;;;;;;;;;;4991896;28;20231;-54
2022/06/14 09:24:00;;;;;;;356.00;194.97;;;;;;;;;;4987764;28;20186;-53
2022/06/14 09:26:41;;;;;;;376.10;180.40;;;;;;;;;;4987552;28;20756;-53
2022/06/14 09:29:26;;;;;;;380.80;193.10;;;;;;;;;;4989069;28;20262;-54
2022/06/14 09:32:11;;;;;;;449.03;225.17;;;;;;;;;;4986415;28;20478;-54
2022/06/14 09:34:40;;;;;;;377.43;186.60;;;;;;;;;;4989021;28;20574;-54
2022/06/14 09:37:08;;;;;;;401.00;196.03;;;;;;;;;;4989841;28;20935;-54
2022/06/14 09:39:56;;;;;;;426.10;204.57;;;;;;;;;;4988208;28;20214;-54
2022/06/14 09:42:36;;;;;;;381.80;194.60;;;;;;;;;;4989709;28;21501;-54
2022/06/14 09:45:22;;;;;;;380.30;191.13;;;;;;;;;;4989391;28;20233;-55
2022/06/14 09:48:15;;;;;;;400.37;213.10;;;;;;;;;;4990836;28;20205;-54
2022/06/14 09:50:53;;;;;;;361.37;196.67;;;;;;;;;;4990406;28;20182;-54
2022/06/14 09:53:37;;;;;;;420.13;220.60;;;;;;;;;;4991780;28;20821;-54
2022/06/14 09:56:03;;;;;;;406.08;214.43;;;;;;;;;;4989644;28;20225;-54
2022/06/14 09:58:32;;;;;;;406.90;212.50;;;;;;;;;;4976984;28;20702;-54
2022/06/14 10:01:01;;;;;;;413.53;211.13;;;;;;;;;;4980842;28;20220;-54
2022/06/14 10:03:46;;;;;;;385.23;205.50;;;;;;;;;;4992001;28;20224;-54
2022/06/14 10:06:11;;;;;;;413.70;214.83;;;;;;;;;;4986546;28;20232;-54
2022/06/14 10:08:40;;;;;;;479.10;244.63;;;;;;;;;;4988018;28;20208;-54
2022/06/14 10:11:17;;;;;;;412.70;210.53;;;;;;;;;;4977453;28;20670;-54
2022/06/14 10:14:05;;;;;;;397.67;203.23;;;;;;;;;;4981634;28;20709;-54
2022/06/14 10:16:37;;;;;;;404.57;207.33;;;;;;;;;;4975774;28;20223;-54
2022/06/14 10:19:21;;;;;;;434.05;221.45;;;;;;;;;;4991692;28;20221;-54
2022/06/14 10:21:52;;;;;;;453.65;234.90;;;;;;;;;;4982470;28;20213;-54
2022/06/14 10:24:21;;;;;;;471.03;241.03;;;;;;;;;;4978758;28;20598;-54
2022/06/14 10:30:03;;;;;;;364.70;197.03;;;;;;;;;;4979654;28;20200;-54
2022/06/14 10:32:44;;;;;;;402.20;215.53;;;;;;;;;;4984726;28;20189;-54
2022/06/14 10:35:17;;;;;;;351.57;190.87;;;;;;;;;;4986469;28;20236;-54
2022/06/14 10:38:02;;;;;;;349.85;190.20;;;;;;;;;;4981863;28;20231;-54
2022/06/14 10:41:00;;;;;;;360.75;199.20;;;;;;;;;;4985745;28;20740;-54
2022/06/14 10:43:26;;;;;;;354.52;199.35;;;;;;;;;;4979884;28;20245;-54
2022/06/14 10:45:55;;;;;;;333.88;192.27;;;;;;;;;;4985342;28;20249;-54
2022/06/14 10:48:24;;;;;;;389.30;212.27;;;;;;;;;;4984743;28;20244;-54
2022/06/14 10:51:10;;;;;;;302.15;174.20;;;;;;;;;;4983147;28;20221;-54
2022/06/14 10:53:55;;;;;;;323.35;181.82;;;;;;;;;;4984836;28;20177;-54
2022/06/14 10:56:33;;;;;;;392.73;212.53;;;;;;;;;;4982015;28;20284;-54
2022/06/14 10:58:59;;;;;;;345.40;200.40;;;;;;;;;;4982072;28;20366;-54
2022/06/14 11:01:28;;;;;;;386.07;216.37;;;;;;;;;;4973700;28;20217;-54
2022/06/14 11:04:00;;;;;;;338.13;197.30;;;;;;;;;;4985654;28;20276;-54
2022/06/14 11:06:32;;;;;;;324.13;191.57;;;;;;;;;;4988444;28;21576;-54
2022/06/14 11:08:58;;;;;;;306.48;181.35;;;;;;;;;;4975566;28;20523;-54
2022/06/14 11:11:30;;;;;;;304.98;172.85;;;;;;;;;;4985646;28;20459;-54
2022/06/14 11:14:14;;;;;;;331.48;190.32;;;;;;;;;;4988790;28;20756;-54
2022/06/14 11:16:59;;;;;;;304.67;180.73;;;;;;;;;;4984291;28;20217;-54
2022/06/14 11:19:37;;;;;;;359.38;197.73;;;;;;;;;;4986948;28;20221;-54
2022/06/14 11:22:21;;;;;;;327.95;190.57;;;;;;;;;;4992791;28;20216;-54
2022/06/14 11:24:50;;;;;;;286.55;173.40;;;;;;;;;;4994450;28;20217;-54
2022/06/14 11:27:35;;;;;;;329.10;188.55;;;;;;;;;;4999354;28;20593;-54
2022/06/14 11:30:10;;;;;;;299.58;175.80;;;;;;;;;;4993046;28;20717;-54
2022/06/14 11:32:36;;;;;;;322.30;182.13;;;;;;;;;;4989650;28;20616;-54
2022/06/14 11:35:07;;;;;;;344.65;196.23;;;;;;;;;;4991870;28;20228;-54
2022/06/14 11:37:54;;;;;;;343.40;198.30;;;;;;;;;;4987083;28;20225;-54
2022/06/14 11:40:24;;;;;;;376.10;214.05;;;;;;;;;;4986588;28;20254;-54
2022/06/14 11:43:08;;;;;;;324.80;189.48;;;;;;;;;;4985291;28;20244;-54
2022/06/14 11:45:54;;;;;;;310.92;187.15;;;;;;;;;;4985855;28;20220;-54
2022/06/14 11:48:26;;;;;;;340.73;203.95;;;;;;;;;;4984781;28;20217;-54
2022/06/14 11:50:57;;;;;;;298.00;180.32;;;;;;;;;;4990842;28;20182;-54
2022/06/14 11:53:25;;;;;;;384.48;221.30;;;;;;;;;;4987121;28;20173;-54
2022/06/14 11:56:00;;;;;;;334.77;197.40;;;;;;;;;;4989122;28;20213;-54
2022/06/14 11:58:47;;;;;;;410.05;228.10;;;;;;;;;;4984698;28;20680;-54
2022/06/14 12:01:19;;;;;;;349.88;202.63;;;;;;;;;;4989396;28;20260;-54
2022/06/14 12:03:51;;;;;;;435.77;222.57;;;;;;;;;;4986267;28;20221;-54
2022/06/14 12:06:27;;;;;;;380.88;205.73;;;;;;;;;;4988440;28;20227;-54
2022/06/14 12:09:02;;;;;;;320.38;191.57;;;;;;;;;;4988483;28;20205;-54
2022/06/14 12:11:34;;;;;;;310.63;191.43;;;;;;;;;;4993580;28;20637;-54
2022/06/14 12:14:09;;;;;;;269.23;171.70;;;;;;;;;;4990805;28;20201;-54
2022/06/14 12:16:42;;;;;;;285.23;184.52;;;;;;;;;;4993370;28;20902;-54
2022/06/14 12:19:27;;;;;;;323.92;201.35;;;;;;;;;;4992988;28;20224;-54
2022/06/14 12:21:59;;;;;;;337.75;205.27;;;;;;;;;;4991571;28;20365;-54
2022/06/14 12:26:34;;;;;;;364.95;216.55;;;;;;;;;;4986820;28;20291;-54
2022/06/14 12:27:18;;;;;;;354.13;214.43;;;;;;;;;;4982908;28;20224;-54
2022/06/14 12:29:44;;;;;;;327.65;207.60;;;;;;;;;;4997210;28;20613;-54
2022/06/14 12:32:13;;;;;;;294.48;191.63;;;;;;;;;;4994052;28;20182;-54
2022/06/14 12:34:51;;;;;;;310.42;199.57;;;;;;;;;;4998659;28;20217;-54
2022/06/14 12:37:36;;;;;;;392.15;232.90;;;;;;;;;;4988282;28;20588;-54
2022/06/14 12:40:02;;;;;;;296.45;188.80;;;;;;;;;;4995959;28;20214;-54
2022/06/14 12:42:35;;;;;;;319.13;190.57;;;;;;;;;;4984311;28;20236;-54
2022/06/14 12:45:04;;;;;;;311.73;192.50;;;;;;;;;;4989978;28;20566;-54
2022/06/14 12:47:36;;;;;;;319.40;191.13;;;;;;;;;;4993116;28;20181;-54
2022/06/14 12:50:10;;;;;;;324.65;194.38;;;;;;;;;;4982799;28;20695;-54
2022/06/14 12:52:40;;;;;;;397.75;232.52;;;;;;;;;;4992055;28;20224;-54
2022/06/14 12:55:17;;;;;;;316.17;204.50;;;;;;;;;;4985090;28;20413;-54
2022/06/14 12:57:46;;;;;;;316.88;202.63;;;;;;;;;;4995750;28;20684;-55
2022/06/14 13:00:31;;;;;;;335.60;215.95;;;;;;;;;;4992167;28;20217;-54
2022/06/14 13:03:13;;;;;;;307.63;198.43;;;;;;;;;;4993670;28;20229;-54
2022/06/14 13:05:41;;;;;;;405.08;241.00;;;;;;;;;;4996415;28;20181;-54
2022/06/14 13:08:21;;;;;;;430.02;254.82;;;;;;;;;;4985313;28;20543;-54
2022/06/14 13:10:50;;;;;;;348.10;215.65;;;;;;;;;;4983962;28;20213;-54
2022/06/14 13:13:31;;;;;;;328.42;201.93;;;;;;;;;;4991855;28;20461;-54
2022/06/14 13:16:00;;;;;;;314.23;197.82;;;;;;;;;;4988292;28;20625;-54
2022/06/14 13:18:37;;;;;;;330.00;210.25;;;;;;;;;;4991340;28;20324;-54
2022/06/14 13:21:16;;;;;;;368.77;224.02;;;;;;;;;;4995823;28;20869;-54
2022/06/14 13:24:01;;;;;;;335.13;209.65;;;;;;;;;;4983114;28;20700;-54
2022/06/14 13:26:42;;;;;;;337.30;209.32;;;;;;;;;;4988925;28;20653;-54
2022/06/14 13:29:11;;;;;;;392.55;233.43;;;;;;;;;;4981649;28;20255;-54
2022/06/14 13:31:37;;;;;;;356.42;213.60;;;;;;;;;;4986081;28;20225;-54
2022/06/14 13:34:03;;;;;;;336.77;201.30;;;;;;;;;;4995019;28;20239;-54
2022/06/14 13:36:36;;;;;;;317.92;199.05;;;;;;;;;;5003598;28;20306;-54
2022/06/14 13:39:12;;;;;;;402.30;236.07;;;;;;;;;;4985453;28;20532;-54
2022/06/14 13:41:41;;;;;;;328.35;209.18;;;;;;;;;;4990487;28;20219;-54
2022/06/14 13:44:13;;;;;;;322.63;206.98;;;;;;;;;;4989305;28;20732;-54
2022/06/14 13:46:48;;;;;;;405.42;243.05;;;;;;;;;;4988868;28;20217;-54
2022/06/14 13:49:28;;;;;;;397.83;220.25;;;;;;;;;;4988932;28;20700;-54
2022/06/14 13:52:01;;;;;;;398.60;210.63;;;;;;;;;;4987091;28;20208;-54
2022/06/14 13:54:44;;;;;;;408.02;217.82;;;;;;;;;;4987304;28;20744;-54
2022/06/14 13:57:28;;;;;;;411.10;220.48;;;;;;;;;;4987798;28;20232;-54
2022/06/14 13:59:57;;;;;;;392.23;211.30;;;;;;;;;;4990432;28;20201;-54
2022/06/14 14:02:22;;;;;;;360.25;196.27;;;;;;;;;;4995431;28;20530;-54
2022/06/14 14:05:02;;;;;;;423.00;223.23;;;;;;;;;;4985940;28;20220;-54
2022/06/14 14:07:37;;;;;;;407.60;216.60;;;;;;;;;;4995677;28;20217;-54
2022/06/14 14:10:33;;;;;;;401.98;227.43;;;;;;;;;;4985475;28;20253;-54
2022/06/14 14:13:10;;;;;;;385.42;210.18;;;;;;;;;;4980373;28;20215;-54
2022/06/14 14:15:42;;;;;;;344.60;198.57;;;;;;;;;;4993729;28;20276;-54
2022/06/14 14:18:14;;;;;;;381.77;215.15;;;;;;;;;;4987550;28;20221;-54
2022/06/14 14:21:06;;;;;;;415.88;224.55;;;;;;;;;;4985435;28;20193;-54
2022/06/14 14:23:36;;;;;;;350.55;192.80;;;;;;;;;;4981852;28;20597;-54
2022/06/14 14:26:04;;;;;;;362.20;190.68;;;;;;;;;;4979343;28;20323;-54
2022/06/14 14:28:38;;;;;;;462.77;226.85;;;;;;;;;;4970103;28;20225;-54
2022/06/14 14:31:17;;;;;;;354.08;189.15;;;;;;;;;;4989514;28;20221;-55
2022/06/14 14:33:46;;;;;;;448.85;225.35;;;;;;;;;;4985367;28;20213;-54
2022/06/14 14:36:16;;;;;;;419.58;217.13;;;;;;;;;;4986933;28;20217;-54
2022/06/14 14:38:45;;;;;;;419.67;211.48;;;;;;;;;;4976513;28;20426;-54
2022/06/14 14:41:34;;;;;;;392.45;215.00;;;;;;;;;;4973620;28;20199;-55